createdAt,value
2022-10-13T16:34:38.596Z,16.17
2022-10-13T17:39:56.516Z,17.13
2022-10-13T17:42:23.321Z,18.43
2022-10-13T17:44:50.061Z,16.50
2022-10-13T17:47:16.750Z,18.47
2022-10-13T17:49:44.940Z,20.10
2022-10-13T17:52:11.636Z,17.80
2022-10-13T17:54:38.371Z,16.87
2022-10-13T17:57:05.467Z,17.63
2022-10-13T17:59:32.466Z,15.33
2022-10-13T18:01:59.157Z,19.63
2022-10-13T18:04:28.754Z,23.23
2022-10-13T18:06:55.643Z,18.93
2022-10-13T18:09:24.513Z,17.17
2022-10-13T18:11:53.690Z,18.70
2022-10-13T18:14:22.345Z,18.73
2022-10-13T18:16:52.910Z,17.40
2022-10-13T18:19:21.141Z,18.27
2022-10-13T18:21:48.710Z,20.67
2022-10-13T18:24:15.832Z,19.30
2022-10-13T18:26:42.777Z,19.77
2022-10-13T18:29:11.517Z,20.00
2022-10-13T18:31:40.319Z,20.67
2022-10-13T18:34:10.796Z,19.40
2022-10-13T18:36:40.228Z,18.87
2022-10-13T18:39:15.413Z,16.87
2022-10-13T18:41:42.280Z,18.70
2022-10-13T18:44:11.037Z,18.73
2022-10-13T18:46:38.595Z,18.97
2022-10-13T18:49:07.232Z,17.10
2022-10-13T18:51:36.567Z,15.67
2022-10-13T18:54:04.170Z,13.80
2022-10-13T18:56:32.193Z,14.40
2022-10-13T18:59:01.919Z,12.30
2022-10-13T19:01:32.351Z,14.10
2022-10-13T19:04:00.093Z,13.00
2022-10-13T19:06:28.706Z,13.80
2022-10-13T19:09:07.748Z,14.57
2022-10-13T19:11:35.541Z,15.50
2022-10-13T19:14:04.133Z,14.10
2022-10-13T19:16:33.265Z,15.40
2022-10-13T19:19:01.791Z,15.07
2022-10-13T19:21:28.606Z,16.00
2022-10-13T19:23:59.543Z,15.10
2022-10-13T19:26:29.762Z,15.57
2022-10-13T19:29:04.149Z,16.30
2022-10-13T19:31:33.109Z,15.90
2022-10-13T19:34:00.753Z,16.43
2022-10-13T19:36:34.447Z,15.20
2022-10-13T19:39:04.044Z,14.97
2022-10-13T19:41:32.792Z,15.03
2022-10-13T19:44:00.493Z,15.67
2022-10-13T19:46:27.460Z,15.53
2022-10-13T19:48:54.809Z,15.03
2022-10-13T19:51:21.867Z,14.50
2022-10-13T19:53:48.623Z,15.00
2022-10-13T19:56:34.519Z,17.30
2022-10-13T19:59:04.459Z,15.30
2022-10-13T20:01:32.364Z,16.33
2022-10-13T20:03:59.112Z,15.37
2022-10-13T20:06:26.399Z,15.90
2022-10-13T20:08:53.169Z,15.77
2022-10-13T20:11:24.427Z,16.57
2022-10-13T20:13:53.521Z,17.30
2022-10-13T20:16:23.356Z,16.13
2022-10-13T20:18:55.218Z,15.90
2022-10-13T20:21:23.100Z,16.57
2022-10-13T20:23:49.939Z,17.60
2022-10-13T20:26:17.563Z,16.60
2022-10-13T20:28:46.257Z,16.57
2022-10-13T20:31:15.584Z,17.67
2022-10-13T20:33:42.799Z,16.13
2022-10-13T20:36:12.721Z,16.67
2022-10-13T20:38:39.926Z,15.93
2022-10-13T20:41:15.096Z,17.40
2022-10-13T20:43:41.955Z,17.10
2022-10-13T20:46:09.439Z,17.30
2022-10-13T20:49:05.186Z,17.43
2022-10-13T20:51:26.251Z,17.57
2022-10-13T20:53:53.249Z,17.23
2022-10-13T20:56:24.899Z,17.60
2022-10-13T20:58:55.063Z,17.83
2022-10-13T21:01:23.759Z,21.33
2022-10-13T21:03:55.089Z,18.93
2022-10-13T21:06:23.700Z,18.37
2022-10-13T21:08:53.897Z,18.30
2022-10-13T21:11:22.368Z,19.83
2022-10-13T21:13:50.128Z,19.47
2022-10-13T21:16:23.244Z,20.37
2022-10-13T21:18:52.022Z,20.53
2022-10-13T21:21:28.064Z,20.90
2022-10-13T21:24:04.800Z,21.80
2022-10-13T21:26:32.564Z,21.53
2022-10-13T21:29:00.563Z,21.03
2022-10-13T21:31:28.903Z,21.20
2022-10-13T21:33:56.303Z,20.70
2022-10-13T21:36:29.303Z,19.00
2022-10-13T21:39:06.143Z,21.40
2022-10-13T21:41:33.596Z,19.97
2022-10-13T21:44:01.042Z,20.10
2022-10-13T21:46:33.426Z,18.50
2022-10-13T21:49:02.618Z,19.83
2022-10-13T21:51:36.195Z,18.30
2022-10-13T21:54:10.080Z,18.20
2022-10-13T21:56:38.008Z,17.17
2022-10-13T21:59:06.075Z,16.70
2022-10-13T22:01:35.504Z,16.53
2022-10-13T22:04:02.715Z,16.50
2022-10-13T22:06:32.230Z,17.03
2022-10-13T22:09:01.164Z,17.17
2022-10-13T22:11:31.772Z,18.00
2022-10-13T22:13:59.553Z,17.90
2022-10-13T22:16:36.882Z,17.10
2022-10-13T22:19:03.744Z,16.17
2022-10-13T22:21:35.787Z,16.87
2022-10-13T22:24:05.620Z,16.37
2022-10-13T22:26:38.997Z,16.10
2022-10-13T22:29:07.218Z,14.87
2022-10-13T22:31:34.574Z,15.53
2022-10-13T22:34:12.993Z,15.13
2022-10-13T22:36:44.849Z,14.73
2022-10-13T22:39:12.377Z,14.57
2022-10-13T22:41:39.221Z,14.40
